Terminal Aerodrome Forecast
Issued by NWS Wakefield, VA

Home | Current Version | Previous Version | Text Only | Print | Product List | Glossary On
Versions: 1 2 3 4 5 6 7 8 9 10 11 12 13 14 15 16 17 18
152
FTUS41 KAKQ 161450 AAA
TAFECG
TAF AMD
KECG 161450Z 1615/1712 06006KT P6SM OVC040
      TEMPO 1615/1618 -DZ BKN025 OVC040
     FM161800 05004KT P6SM OVC025=

USA.gov is the U.S. government's official web portal to all federal, state and local government web resources and services.